createdAt,value
2023-04-26T00:00:37.672Z,29.11
2023-04-26T00:01:37.652Z,29.13
2023-04-26T00:02:37.734Z,29.09
2023-04-26T00:03:38.082Z,29.13
2023-04-26T00:04:37.812Z,29.14
2023-04-26T00:05:37.816Z,29.13
2023-04-26T00:06:37.817Z,29.12
2023-04-26T00:07:37.850Z,29.13
2023-04-26T00:08:38.252Z,29.12
2023-04-26T00:09:37.929Z,29.10
2023-04-26T00:10:37.966Z,29.09
2023-04-26T00:11:38.012Z,29.16
2023-04-26T00:12:38.128Z,29.14
2023-04-26T00:13:38.283Z,29.13
2023-04-26T00:14:38.166Z,29.11
2023-04-26T00:15:38.214Z,29.12
2023-04-26T00:16:38.315Z,29.12
2023-04-26T00:17:38.399Z,29.14
2023-04-26T00:18:38.389Z,29.13
2023-04-26T00:19:38.404Z,29.10
2023-04-26T00:20:38.491Z,29.08
2023-04-26T00:21:38.505Z,29.10
2023-04-26T00:22:38.568Z,29.10
2023-04-26T00:23:38.620Z,29.10
2023-04-26T00:24:38.653Z,29.05
2023-04-26T00:25:38.716Z,29.14
2023-04-26T00:26:38.837Z,29.13
2023-04-26T00:27:38.811Z,29.09
2023-04-26T00:28:39.276Z,29.10
2023-04-26T00:29:38.915Z,29.14
2023-04-26T00:30:38.969Z,29.12
2023-04-26T00:31:39.062Z,29.12
2023-04-26T00:32:39.115Z,29.12
2023-04-26T00:33:39.122Z,29.08
2023-04-26T00:34:39.167Z,29.10
2023-04-26T00:35:39.218Z,29.10
2023-04-26T00:36:39.268Z,29.09
2023-04-26T00:37:39.302Z,29.10
2023-04-26T00:38:39.354Z,29.12
2023-04-26T00:39:39.391Z,29.08
2023-04-26T00:40:39.451Z,29.05
2023-04-26T00:41:39.528Z,29.14
2023-04-26T00:42:39.554Z,29.13
2023-04-26T00:43:39.615Z,29.05
2023-04-26T00:44:39.650Z,29.13
2023-04-26T00:45:39.730Z,29.13
2023-04-26T00:46:39.769Z,29.12
2023-04-26T00:47:39.881Z,29.10
2023-04-26T00:48:39.873Z,29.10
2023-04-26T00:49:39.895Z,29.10
2023-04-26T00:50:39.930Z,29.09
2023-04-26T00:51:39.991Z,29.12
2023-04-26T00:52:40.058Z,29.09
2023-04-26T00:53:40.124Z,29.06
2023-04-26T00:54:40.195Z,29.09
2023-04-26T00:55:40.292Z,29.09
2023-04-26T00:56:40.268Z,29.09
2023-04-26T00:57:40.311Z,29.13
2023-04-26T00:58:40.351Z,29.08
2023-04-26T00:59:40.442Z,29.12
2023-04-26T01:00:40.471Z,29.12
2023-04-26T01:01:40.643Z,29.09
2023-04-26T01:02:40.709Z,29.07
2023-04-26T01:03:40.926Z,29.15
2023-04-26T01:04:40.663Z,29.07
2023-04-26T01:05:40.733Z,29.10
2023-04-26T01:06:40.786Z,29.10
2023-04-26T01:07:40.840Z,29.13
2023-04-26T01:08:40.882Z,29.10
2023-04-26T01:09:40.907Z,29.10
2023-04-26T01:10:40.984Z,29.10
2023-04-26T01:11:41.037Z,29.09
2023-04-26T01:12:41.097Z,29.09
2023-04-26T01:13:41.155Z,29.12
2023-04-26T01:14:41.209Z,29.07
2023-04-26T01:15:41.251Z,29.06
2023-04-26T01:16:41.358Z,29.03
2023-04-26T01:17:41.413Z,29.10
2023-04-26T01:18:41.778Z,29.07
2023-04-26T01:19:41.458Z,29.07
2023-04-26T01:20:41.543Z,29.06
2023-04-26T01:21:41.583Z,29.10
2023-04-26T01:22:41.610Z,29.11
2023-04-26T01:23:41.732Z,29.03
2023-04-26T01:24:41.725Z,29.07
2023-04-26T01:25:41.785Z,29.09
2023-04-26T01:26:41.866Z,29.11
2023-04-26T01:27:41.890Z,29.09
2023-04-26T01:28:41.971Z,29.05
2023-04-26T01:29:42.021Z,29.09
2023-04-26T01:30:42.086Z,29.07
2023-04-26T01:31:42.128Z,29.07
2023-04-26T01:32:42.163Z,29.07
2023-04-26T01:33:42.315Z,29.06
2023-04-26T01:34:42.278Z,29.05
2023-04-26T01:35:42.350Z,29.10
2023-04-26T01:36:42.386Z,29.10
2023-04-26T01:37:42.402Z,29.07
2023-04-26T01:38:42.504Z,29.06
2023-04-26T01:39:42.572Z,29.05
2023-04-26T01:40:42.610Z,29.06
2023-04-26T01:41:42.664Z,29.07
2023-04-26T01:42:42.710Z,29.06
2023-04-26T01:43:42.751Z,29.05
2023-04-26T01:44:42.827Z,29.05
2023-04-26T01:45:42.900Z,29.02
2023-04-26T01:46:43.002Z,29.02
2023-04-26T01:47:43.016Z,29.07
2023-04-26T01:48:43.053Z,29.07
2023-04-26T01:49:43.071Z,29.06
2023-04-26T01:50:43.157Z,29.08
2023-04-26T01:51:43.199Z,29.05
2023-04-26T01:52:43.263Z,29.06
2023-04-26T01:53:43.282Z,29.06
2023-04-26T01:54:43.382Z,29.06
2023-04-26T01:55:43.430Z,29.03
2023-04-26T01:56:43.470Z,29.10
2023-04-26T01:57:43.545Z,29.06
2023-04-26T01:58:43.589Z,29.12
2023-04-26T01:59:43.660Z,29.11
2023-04-26T02:00:43.702Z,29.06
2023-04-26T02:01:43.815Z,29.04
2023-04-26T02:02:43.971Z,29.04
2023-04-26T02:03:43.915Z,29.06
2023-04-26T02:04:43.965Z,29.10
2023-04-26T02:05:43.981Z,29.04
2023-04-26T02:06:44.017Z,29.02
2023-04-26T02:07:44.083Z,29.08
2023-04-26T02:08:44.287Z,29.03
2023-04-26T02:09:44.162Z,29.07
2023-04-26T02:10:44.247Z,29.05
2023-04-26T02:12:44.314Z,29.07
2023-04-26T02:13:44.403Z,29.08
2023-04-26T02:14:44.485Z,29.06
2023-04-26T02:15:44.540Z,29.07
2023-04-26T02:16:44.584Z,29.07
2023-04-26T02:17:44.667Z,29.03
2023-04-26T02:18:44.733Z,29.03
2023-04-26T02:19:44.752Z,29.03
2023-04-26T02:20:44.792Z,29.06
2023-04-26T02:21:44.861Z,29.04
2023-04-26T02:22:44.914Z,29.04
2023-04-26T02:23:44.965Z,29.03
2023-04-26T02:24:45.063Z,29.04
2023-04-26T02:25:45.104Z,29.03
2023-04-26T02:26:45.144Z,29.04
2023-04-26T02:27:45.214Z,29.06
2023-04-26T02:28:45.294Z,29.04
2023-04-26T02:29:45.326Z,29.03
2023-04-26T02:30:45.386Z,29.00
2023-04-26T02:31:45.517Z,29.04
2023-04-26T02:32:45.596Z,29.07
2023-04-26T02:33:45.615Z,29.03
2023-04-26T02:34:45.650Z,29.05
2023-04-26T02:35:45.709Z,29.06
2023-04-26T02:36:45.774Z,29.06
2023-04-26T02:37:45.871Z,29.02
2023-04-26T02:38:46.295Z,29.02
2023-04-26T02:39:45.967Z,29.07
2023-04-26T02:40:46.032Z,29.03
2023-04-26T02:41:46.096Z,29.00
2023-04-26T02:42:46.174Z,29.06
2023-04-26T02:43:46.224Z,29.03
2023-04-26T02:44:46.276Z,29.04
2023-04-26T02:45:46.356Z,29.00
2023-04-26T02:46:46.429Z,29.06
2023-04-26T02:47:46.456Z,29.06
2023-04-26T02:48:46.524Z,29.03
2023-04-26T02:49:46.593Z,29.02
2023-04-26T02:50:46.641Z,29.00
2023-04-26T02:51:46.674Z,29.00
2023-04-26T02:52:46.751Z,29.06
2023-04-26T02:53:46.832Z,29.01
2023-04-26T02:54:46.865Z,29.05
2023-04-26T02:55:46.959Z,28.98
2023-04-26T02:56:46.987Z,29.03
2023-04-26T02:57:47.058Z,29.01
2023-04-26T02:58:47.103Z,29.03
2023-04-26T02:59:47.186Z,29.00
2023-04-26T03:00:47.321Z,29.01
2023-04-26T03:01:47.331Z,29.01
2023-04-26T03:02:47.496Z,29.03
2023-04-26T03:03:47.521Z,29.01
2023-04-26T03:04:47.829Z,29.07
2023-04-26T03:05:47.566Z,29.00
2023-04-26T03:06:47.614Z,29.04
2023-04-26T03:07:47.673Z,29.01
2023-04-26T03:08:47.727Z,29.01
2023-04-26T03:09:47.836Z,29.03
2023-04-26T03:10:47.854Z,29.04
2023-04-26T03:11:50.099Z,29.00
2023-04-26T03:12:47.976Z,29.04
2023-04-26T03:13:48.003Z,29.03
2023-04-26T03:14:48.107Z,29.04
2023-04-26T03:15:48.818Z,29.03
2023-04-26T03:16:48.271Z,29.04
2023-04-26T03:17:48.320Z,29.02
2023-04-26T03:18:48.334Z,29.03
2023-04-26T03:19:48.410Z,29.04
2023-04-26T03:20:48.462Z,29.03
2023-04-26T03:21:48.539Z,29.05
2023-04-26T03:22:48.587Z,29.00
2023-04-26T03:23:48.644Z,29.01
2023-04-26T03:24:48.663Z,28.99
2023-04-26T03:25:48.724Z,28.96
2023-04-26T03:26:48.787Z,29.00
2023-04-26T03:27:48.837Z,29.01
2023-04-26T03:28:48.926Z,29.00
2023-04-26T03:29:48.981Z,29.00
2023-04-26T03:30:49.074Z,28.97
2023-04-26T03:31:49.140Z,29.00
2023-04-26T03:32:49.213Z,29.03
2023-04-26T03:33:49.257Z,29.02
2023-04-26T03:34:49.316Z,29.02
2023-04-26T03:35:49.414Z,28.98
2023-04-26T03:36:49.438Z,28.97
2023-04-26T03:37:50.381Z,28.97
2023-04-26T03:38:49.649Z,29.00
2023-04-26T03:39:50.365Z,28.97
2023-04-26T03:40:49.668Z,29.02
2023-04-26T03:41:49.721Z,29.02
2023-04-26T03:42:49.809Z,28.96
2023-04-26T03:43:49.882Z,28.96
2023-04-26T03:44:49.940Z,29.00
2023-04-26T03:45:50.080Z,29.04
2023-04-26T03:46:50.135Z,28.97
2023-04-26T03:47:50.134Z,29.04
2023-04-26T03:48:50.480Z,29.04
2023-04-26T03:49:50.258Z,28.97
2023-04-26T03:50:50.288Z,29.01
2023-04-26T03:51:50.365Z,29.03
2023-04-26T03:52:50.435Z,29.00
2023-04-26T03:53:50.490Z,29.01
2023-04-26T03:54:50.576Z,28.97
2023-04-26T03:55:50.646Z,29.01
2023-04-26T03:56:50.674Z,28.94
2023-04-26T03:57:50.756Z,29.02
2023-04-26T03:58:51.051Z,28.98
2023-04-26T03:59:50.883Z,28.98
2023-04-26T04:00:50.939Z,28.96
2023-04-26T04:01:51.033Z,29.00
2023-04-26T04:02:51.172Z,28.99
2023-04-26T04:03:51.305Z,29.01
2023-04-26T04:04:51.350Z,28.96
2023-04-26T04:05:51.353Z,28.98
2023-04-26T04:06:51.340Z,28.98
2023-04-26T04:07:51.400Z,28.93
2023-04-26T04:08:51.757Z,28.97
2023-04-26T04:09:51.500Z,29.00
2023-04-26T04:10:51.566Z,28.98
2023-04-26T04:11:51.612Z,29.01
2023-04-26T04:12:51.683Z,28.97
2023-04-26T04:13:51.761Z,29.01
2023-04-26T04:14:51.803Z,29.00
2023-04-26T04:15:51.898Z,28.93
2023-04-26T04:16:51.902Z,29.01
2023-04-26T04:17:52.016Z,28.98
2023-04-26T04:18:52.239Z,29.01
2023-04-26T04:19:52.368Z,28.99
2023-04-26T04:20:52.174Z,29.00
2023-04-26T04:21:52.246Z,28.96
2023-04-26T04:22:52.308Z,29.00
2023-04-26T04:23:52.355Z,28.97
2023-04-26T04:24:52.843Z,28.99
2023-04-26T04:25:52.483Z,28.96
2023-04-26T04:26:52.603Z,28.93
2023-04-26T04:27:52.607Z,28.96
2023-04-26T04:28:52.838Z,29.00
2023-04-26T04:29:52.868Z,28.94
2023-04-26T04:30:52.843Z,28.95
2023-04-26T04:31:52.887Z,28.96
2023-04-26T04:32:52.990Z,28.93
2023-04-26T04:33:53.017Z,28.97
2023-04-26T04:34:53.093Z,28.94
2023-04-26T04:35:53.141Z,28.94
2023-04-26T04:36:53.220Z,28.93
2023-04-26T04:37:53.277Z,28.90
2023-04-26T04:38:53.627Z,28.92
2023-04-26T04:39:53.398Z,28.92
2023-04-26T04:40:53.439Z,28.90
2023-04-26T04:41:53.506Z,28.95
2023-04-26T04:42:53.605Z,28.91
2023-04-26T04:43:53.688Z,28.95
2023-04-26T04:44:53.722Z,28.93
2023-04-26T04:45:53.771Z,28.94
2023-04-26T04:46:53.884Z,28.92
2023-04-26T04:47:53.929Z,28.94
2023-04-26T04:48:54.163Z,28.94
2023-04-26T04:49:53.967Z,28.90
2023-04-26T04:50:54.061Z,28.90
2023-04-26T04:51:54.087Z,28.91
2023-04-26T04:52:54.135Z,28.89
2023-04-26T04:53:54.186Z,28.89
2023-04-26T04:54:54.256Z,28.90
2023-04-26T04:55:54.319Z,28.89
2023-04-26T04:56:54.376Z,28.88
2023-04-26T04:57:54.416Z,28.89
2023-04-26T04:58:54.620Z,28.88
2023-04-26T04:59:54.541Z,28.88
2023-04-26T05:00:54.587Z,28.88
2023-04-26T05:01:54.703Z,28.91
2023-04-26T05:02:54.940Z,28.89
2023-04-26T05:03:55.277Z,28.86
2023-04-26T05:04:54.883Z,28.91
2023-04-26T05:05:54.910Z,28.89
2023-04-26T05:06:55.875Z,28.86
2023-04-26T05:07:55.027Z,28.85
2023-04-26T05:08:55.097Z,28.88
2023-04-26T05:09:55.386Z,28.90
2023-04-26T05:10:55.227Z,28.92
2023-04-26T05:11:55.251Z,28.90
2023-04-26T05:12:55.356Z,28.83
2023-04-26T05:13:55.685Z,28.84
2023-04-26T05:14:55.507Z,28.84
2023-04-26T05:15:55.534Z,28.84
2023-04-26T05:16:55.622Z,28.86
2023-04-26T05:17:55.648Z,28.85
2023-04-26T05:18:55.732Z,28.79
2023-04-26T05:19:55.757Z,28.81
2023-04-26T05:20:55.816Z,28.81
2023-04-26T05:21:55.882Z,28.81
2023-04-26T05:22:55.961Z,28.83
2023-04-26T05:23:56.016Z,28.84
2023-04-26T05:24:56.090Z,28.84
2023-04-26T05:25:56.121Z,28.83
2023-04-26T05:26:56.204Z,28.81
2023-04-26T05:27:56.260Z,28.82
2023-04-26T05:28:56.322Z,28.83
2023-04-26T05:29:56.392Z,28.85
2023-04-26T05:30:56.427Z,28.83
2023-04-26T05:31:56.559Z,28.78
2023-04-26T05:32:56.595Z,28.81
2023-04-26T05:33:56.628Z,28.79
2023-04-26T05:34:56.909Z,28.76
2023-04-26T05:35:56.775Z,28.80
2023-04-26T05:36:56.807Z,28.79
2023-04-26T05:37:56.921Z,28.80
2023-04-26T05:38:56.980Z,28.77
2023-04-26T05:39:57.402Z,28.81
2023-04-26T05:40:57.067Z,28.78
2023-04-26T05:41:57.100Z,28.84
2023-04-26T05:42:57.191Z,28.81
2023-04-26T05:43:57.249Z,28.83
2023-04-26T05:44:57.403Z,28.83
2023-04-26T05:45:57.427Z,28.85
2023-04-26T05:46:57.457Z,28.83
2023-04-26T05:47:57.551Z,28.83
2023-04-26T05:48:57.593Z,28.80
2023-04-26T05:49:57.649Z,28.84
2023-04-26T05:50:57.699Z,30.81
2023-04-26T05:51:57.808Z,29.66
2023-04-26T05:52:57.798Z,30.03
2023-04-26T05:53:57.844Z,30.13
2023-04-26T05:54:58.382Z,30.01
2023-04-26T05:55:57.975Z,29.88
2023-04-26T05:56:59.158Z,29.89
2023-04-26T05:57:58.032Z,29.97
2023-04-26T05:58:58.063Z,30.01
2023-04-26T05:59:58.136Z,30.11
2023-04-26T06:00:58.159Z,29.98
2023-04-26T06:01:58.186Z,30.01
2023-04-26T06:02:58.484Z,30.69
2023-04-26T06:04:00.885Z,33.72
2023-04-26T06:04:58.678Z,31.96
2023-04-26T06:05:58.342Z,32.26
2023-04-26T06:06:58.886Z,32.90
2023-04-26T06:07:58.258Z,32.68
2023-04-26T06:08:58.256Z,32.81
2023-04-26T06:09:58.232Z,32.65
2023-04-26T06:10:58.231Z,32.67
2023-04-26T06:11:58.218Z,32.59
2023-04-26T06:12:58.209Z,32.75
2023-04-26T06:13:58.230Z,32.51
2023-04-26T06:14:58.196Z,32.58
2023-04-26T06:15:58.178Z,32.48
2023-04-26T06:16:58.327Z,32.73
2023-04-26T06:17:58.225Z,32.89
2023-04-26T06:18:58.174Z,32.80
2023-04-26T06:19:58.410Z,32.75
2023-04-26T06:20:58.135Z,32.64
2023-04-26T06:21:58.151Z,32.61
2023-04-26T06:22:58.148Z,32.49
2023-04-26T06:23:58.122Z,32.43
2023-04-26T06:24:58.422Z,32.57
2023-04-26T06:25:58.108Z,32.99
2023-04-26T06:26:58.126Z,32.29
2023-04-26T06:27:58.119Z,32.44
2023-04-26T06:28:58.132Z,32.34
2023-04-26T06:29:58.375Z,32.24
2023-04-26T06:30:58.118Z,32.22
2023-04-26T06:31:58.148Z,32.10
2023-04-26T06:32:58.134Z,32.04
2023-04-26T06:33:58.065Z,31.95
2023-04-26T06:34:58.077Z,31.72
2023-04-26T06:35:58.080Z,31.64
2023-04-26T06:36:58.043Z,31.56
2023-04-26T06:37:58.027Z,31.57
2023-04-26T06:38:58.008Z,31.56
2023-04-26T06:39:58.131Z,31.70
2023-04-26T06:40:58.042Z,31.75
2023-04-26T06:41:58.011Z,31.73
2023-04-26T06:42:58.021Z,31.72
2023-04-26T06:43:58.006Z,31.79
2023-04-26T06:44:57.974Z,31.61
2023-04-26T06:45:57.991Z,31.48
2023-04-26T06:46:57.992Z,31.58
2023-04-26T06:47:58.031Z,31.46
2023-04-26T06:48:57.957Z,31.62
2023-04-26T06:49:57.972Z,31.73
2023-04-26T06:50:57.947Z,30.28
2023-04-26T06:51:57.969Z,30.60
2023-04-26T06:52:58.098Z,30.64
2023-04-26T06:53:57.924Z,30.04
2023-04-26T06:54:58.005Z,30.26
2023-04-26T06:55:57.935Z,30.60
2023-04-26T06:56:59.362Z,29.85
2023-04-26T06:57:57.892Z,27.75
2023-04-26T06:58:57.899Z,26.80
2023-04-26T06:59:57.940Z,26.85
2023-04-26T07:00:58.261Z,27.26
2023-04-26T07:01:57.923Z,27.93
2023-04-26T07:02:58.099Z,28.13
2023-04-26T07:03:58.284Z,28.58
2023-04-26T07:04:58.019Z,28.87
2023-04-26T07:05:57.842Z,29.24
2023-04-26T07:06:57.880Z,29.48
2023-04-26T07:07:57.885Z,29.64
2023-04-26T07:08:58.885Z,29.82
2023-04-26T07:09:57.823Z,29.94
2023-04-26T07:10:58.049Z,30.10
2023-04-26T07:11:57.909Z,30.20
2023-04-26T07:12:57.822Z,30.18
2023-04-26T07:13:57.811Z,30.40
2023-04-26T07:14:58.052Z,30.47
2023-04-26T07:15:57.768Z,30.52
2023-04-26T07:16:57.742Z,30.62
2023-04-26T07:17:57.781Z,30.61
2023-04-26T07:18:57.774Z,30.65
2023-04-26T07:19:57.731Z,30.74
2023-04-26T07:20:57.953Z,30.81
2023-04-26T07:21:57.712Z,30.82
2023-04-26T07:22:57.733Z,30.88
2023-04-26T07:23:57.731Z,30.99
2023-04-26T07:24:57.711Z,30.95
2023-04-26T07:25:57.981Z,31.10
2023-04-26T07:26:57.706Z,31.12
2023-04-26T07:27:57.719Z,31.17
2023-04-26T07:28:57.753Z,31.16
2023-04-26T07:29:57.767Z,31.22
2023-04-26T07:30:57.770Z,31.30
2023-04-26T07:31:57.824Z,31.32
2023-04-26T07:32:57.988Z,31.40
2023-04-26T07:33:57.933Z,31.45
2023-04-26T07:34:57.954Z,31.48
2023-04-26T07:35:58.548Z,31.55
2023-04-26T07:36:57.967Z,31.65
2023-04-26T07:37:58.022Z,31.74
2023-04-26T07:38:58.034Z,31.74
2023-04-26T07:39:58.027Z,31.83
2023-04-26T07:40:58.046Z,31.90
2023-04-26T07:41:58.070Z,31.88
2023-04-26T07:42:58.069Z,31.99
2023-04-26T07:43:58.172Z,32.03
2023-04-26T07:44:58.126Z,31.99
2023-04-26T07:45:58.167Z,32.08
2023-04-26T07:46:58.123Z,32.38
2023-04-26T07:47:58.205Z,30.23
2023-04-26T07:48:58.175Z,29.73
2023-04-26T07:49:58.239Z,29.16
2023-04-26T07:50:58.221Z,29.89
2023-04-26T07:51:58.277Z,30.04
2023-04-26T07:52:58.349Z,29.16
2023-04-26T07:53:58.380Z,28.82
2023-04-26T07:54:58.393Z,28.65
2023-04-26T07:55:58.440Z,28.44
2023-04-26T07:56:58.513Z,28.60
2023-04-26T07:57:59.443Z,28.22
2023-04-26T07:58:58.632Z,28.90
2023-04-26T07:59:58.672Z,29.11
2023-04-26T08:00:58.701Z,29.14
2023-04-26T08:01:58.785Z,28.78
2023-04-26T08:02:59.018Z,28.08
2023-04-26T08:03:59.281Z,28.94
2023-04-26T08:04:58.967Z,28.92
2023-04-26T08:05:59.108Z,29.05
2023-04-26T08:06:58.972Z,29.10
2023-04-26T08:07:58.989Z,29.15
2023-04-26T08:08:59.043Z,29.14
2023-04-26T08:09:59.058Z,28.83
2023-04-26T08:10:59.460Z,28.46
2023-04-26T08:11:59.126Z,28.13
2023-04-26T08:12:59.132Z,28.92
2023-04-26T08:13:59.179Z,28.93
2023-04-26T08:14:59.138Z,28.92
2023-04-26T08:15:59.467Z,29.15
2023-04-26T08:16:59.281Z,29.13
2023-04-26T08:17:59.252Z,29.07
2023-04-26T08:18:59.206Z,29.09
2023-04-26T08:19:59.251Z,26.66
2023-04-26T08:20:59.471Z,27.43
2023-04-26T08:21:59.276Z,27.93
2023-04-26T08:22:59.326Z,28.56
2023-04-26T08:23:59.319Z,28.68
2023-04-26T08:24:59.371Z,28.70
2023-04-26T08:25:59.462Z,28.72
2023-04-26T08:26:59.405Z,28.77
2023-04-26T08:27:59.434Z,28.72
2023-04-26T08:28:59.403Z,28.76
2023-04-26T08:29:59.458Z,28.62
2023-04-26T08:30:59.466Z,28.48
2023-04-26T08:31:59.431Z,27.85
2023-04-26T08:32:59.453Z,26.92
2023-04-26T08:33:59.444Z,26.52
2023-04-26T08:34:59.488Z,27.15
2023-04-26T08:35:59.961Z,26.95
2023-04-26T08:36:59.541Z,27.03
2023-04-26T08:37:59.561Z,26.61
2023-04-26T08:38:59.655Z,26.35
2023-04-26T08:39:59.625Z,26.54
2023-04-26T08:40:59.970Z,27.16
2023-04-26T08:41:59.663Z,27.58
2023-04-26T08:42:59.711Z,27.62
2023-04-26T08:43:59.776Z,27.63
2023-04-26T08:44:59.825Z,27.27
2023-04-26T08:46:00.037Z,27.31
2023-04-26T08:46:59.952Z,26.28
2023-04-26T08:48:01.027Z,26.23
2023-04-26T08:49:00.024Z,26.99
2023-04-26T08:50:00.067Z,27.45
2023-04-26T08:51:00.489Z,27.84
2023-04-26T08:52:00.503Z,28.00
2023-04-26T08:53:00.224Z,27.84
2023-04-26T08:54:01.646Z,28.00
2023-04-26T08:55:00.364Z,27.92
2023-04-26T08:56:00.389Z,27.89
2023-04-26T08:57:00.448Z,27.80
2023-04-26T08:58:00.532Z,28.00
2023-04-26T08:59:00.593Z,27.85
2023-04-26T09:00:00.590Z,27.87
2023-04-26T09:01:00.698Z,27.81
2023-04-26T09:02:00.766Z,27.84
2023-04-26T09:03:00.850Z,27.88
2023-04-26T09:04:01.027Z,27.84
2023-04-26T09:05:01.039Z,27.79
2023-04-26T09:06:03.187Z,27.76
2023-04-26T09:07:00.947Z,27.84
2023-04-26T09:08:00.907Z,27.99
2023-04-26T09:09:00.896Z,28.01
2023-04-26T09:10:00.909Z,27.97
2023-04-26T09:11:00.985Z,28.01
2023-04-26T09:12:00.876Z,27.95
2023-04-26T09:13:00.888Z,28.24
2023-04-26T09:14:00.857Z,28.21
2023-04-26T09:15:00.882Z,28.33
2023-04-26T09:16:02.696Z,28.28
2023-04-26T09:17:00.838Z,28.26
2023-04-26T09:18:00.888Z,28.26
2023-04-26T09:19:00.847Z,28.17
2023-04-26T09:20:00.999Z,28.19
2023-04-26T09:21:00.832Z,28.13
2023-04-26T09:22:00.836Z,28.09
2023-04-26T09:23:00.806Z,28.02
2023-04-26T09:24:00.833Z,28.04
2023-04-26T09:25:00.836Z,28.00
2023-04-26T09:26:00.781Z,27.96
2023-04-26T09:27:00.778Z,27.96
2023-04-26T09:28:00.764Z,27.96
2023-04-26T09:29:00.792Z,27.92
2023-04-26T09:30:00.746Z,27.90
2023-04-26T09:31:00.996Z,27.91
2023-04-26T09:32:00.804Z,27.98
2023-04-26T09:33:00.730Z,27.93
2023-04-26T09:34:00.723Z,27.87
2023-04-26T09:35:00.725Z,27.91
2023-04-26T09:36:01.152Z,27.86
2023-04-26T09:37:00.689Z,27.83
2023-04-26T09:38:04.258Z,27.91
2023-04-26T09:39:01.692Z,27.91
2023-04-26T09:40:00.662Z,27.78
2023-04-26T09:41:00.992Z,27.78
2023-04-26T09:42:00.662Z,27.71
2023-04-26T09:43:00.695Z,27.74
2023-04-26T09:44:00.647Z,27.68
2023-04-26T09:45:00.649Z,27.64
2023-04-26T09:46:01.020Z,27.62
2023-04-26T09:47:00.716Z,27.59
2023-04-26T09:48:00.723Z,27.60
2023-04-26T09:49:00.746Z,27.59
2023-04-26T09:50:00.788Z,28.37
2023-04-26T09:51:00.844Z,29.98
2023-04-26T09:52:00.890Z,30.73
2023-04-26T09:53:00.932Z,31.08
2023-04-26T09:54:00.979Z,31.40
2023-04-26T09:55:00.994Z,32.24
2023-04-26T09:56:01.523Z,32.74
2023-04-26T09:57:01.099Z,32.90
2023-04-26T09:58:01.105Z,33.05
2023-04-26T09:59:01.103Z,33.28
2023-04-26T10:00:01.183Z,33.22
2023-04-26T10:01:01.498Z,33.13
2023-04-26T10:02:01.144Z,33.12
2023-04-26T10:03:01.272Z,33.24
2023-04-26T10:04:01.302Z,33.07
2023-04-26T10:05:01.134Z,33.31
2023-04-26T10:06:01.183Z,33.78
2023-04-26T10:07:01.116Z,34.10
2023-04-26T10:08:01.139Z,34.23
2023-04-26T10:09:01.144Z,34.73
2023-04-26T10:10:01.139Z,35.23
2023-04-26T10:11:01.498Z,35.06
2023-04-26T10:12:01.125Z,35.29
2023-04-26T10:13:01.120Z,35.51
2023-04-26T10:14:01.132Z,35.81
2023-04-26T10:15:01.134Z,36.25
2023-04-26T10:16:01.334Z,36.64
2023-04-26T10:17:01.217Z,36.70
2023-04-26T10:18:01.299Z,37.01
2023-04-26T10:19:01.214Z,37.22
2023-04-26T10:20:01.216Z,37.11
2023-04-26T10:21:01.209Z,37.64
2023-04-26T10:22:01.243Z,37.71
2023-04-26T10:23:01.300Z,38.05
2023-04-26T10:24:01.288Z,38.09
2023-04-26T10:25:01.364Z,38.19
2023-04-26T10:26:01.523Z,37.95
2023-04-26T10:27:01.472Z,37.85
2023-04-26T10:28:01.565Z,38.15
2023-04-26T10:29:03.324Z,38.06
2023-04-26T10:30:01.662Z,37.84
2023-04-26T10:31:02.017Z,37.59
2023-04-26T10:32:01.930Z,36.89
2023-04-26T10:33:01.842Z,36.48
2023-04-26T10:34:01.909Z,36.71
2023-04-26T10:35:01.936Z,36.68
2023-04-26T10:36:02.024Z,36.22
2023-04-26T10:37:02.011Z,35.88
2023-04-26T10:38:02.174Z,36.16
2023-04-26T10:39:02.149Z,35.73
2023-04-26T10:40:02.208Z,35.97
2023-04-26T10:41:02.513Z,36.19
2023-04-26T10:42:02.299Z,35.78
2023-04-26T10:43:02.388Z,35.92
2023-04-26T10:44:02.401Z,35.84
2023-04-26T10:45:02.477Z,35.89
2023-04-26T10:46:03.117Z,35.87
2023-04-26T10:47:02.600Z,35.74
2023-04-26T10:48:02.737Z,35.58
2023-04-26T10:49:02.680Z,35.48
2023-04-26T10:50:05.129Z,35.48
2023-04-26T10:51:03.007Z,35.36
2023-04-26T10:52:02.743Z,35.31
2023-04-26T10:53:02.763Z,35.28
2023-04-26T10:54:02.727Z,35.20
2023-04-26T10:55:02.792Z,35.20
2023-04-26T10:56:03.075Z,35.12
2023-04-26T10:57:02.712Z,35.11
2023-04-26T10:58:02.692Z,35.08
2023-04-26T10:59:02.809Z,35.00
2023-04-26T11:00:02.685Z,34.98
2023-04-26T11:01:03.076Z,34.92
2023-04-26T11:02:02.681Z,34.90
2023-04-26T11:03:02.793Z,34.91
2023-04-26T11:04:02.694Z,34.83
2023-04-26T11:05:02.727Z,34.82
2023-04-26T11:06:03.995Z,34.86
2023-04-26T11:07:02.604Z,34.79
2023-04-26T11:08:02.611Z,34.74
2023-04-26T11:09:02.659Z,34.73
2023-04-26T11:10:02.596Z,34.71
2023-04-26T11:11:02.647Z,34.63
2023-04-26T11:12:02.688Z,34.61
2023-04-26T11:13:02.592Z,34.59
2023-04-26T11:14:02.586Z,34.52
2023-04-26T11:15:02.598Z,34.49
2023-04-26T11:16:03.121Z,34.53
2023-04-26T11:17:02.596Z,34.57
2023-04-26T11:18:02.635Z,34.57
2023-04-26T11:19:02.574Z,34.53
2023-04-26T11:20:02.546Z,34.44
2023-04-26T11:21:03.039Z,34.39
2023-04-26T11:22:02.555Z,34.39
2023-04-26T11:23:02.516Z,34.37
2023-04-26T11:24:02.541Z,34.25
2023-04-26T11:25:02.537Z,34.31
2023-04-26T11:26:02.560Z,34.27
2023-04-26T11:27:02.486Z,34.21
2023-04-26T11:28:02.519Z,34.25
2023-04-26T11:29:02.501Z,34.27
2023-04-26T11:30:02.491Z,34.23
2023-04-26T11:31:02.516Z,34.20
2023-04-26T11:32:02.494Z,34.10
2023-04-26T11:33:02.495Z,34.03
2023-04-26T11:34:02.483Z,34.11
2023-04-26T11:35:02.456Z,34.06
2023-04-26T11:36:02.440Z,34.06
2023-04-26T11:37:02.561Z,33.96
2023-04-26T11:38:02.461Z,33.89
2023-04-26T11:39:02.444Z,33.85
2023-04-26T11:40:02.453Z,33.84
2023-04-26T11:41:02.436Z,33.84
2023-04-26T11:42:02.562Z,33.76
2023-04-26T11:43:02.402Z,33.80
2023-04-26T11:44:02.413Z,33.72
2023-04-26T11:45:02.381Z,33.64
2023-04-26T11:46:02.384Z,33.71
2023-04-26T11:47:02.483Z,33.60
2023-04-26T11:48:02.415Z,33.64
2023-04-26T11:49:02.385Z,33.46
2023-04-26T11:50:02.355Z,33.38
2023-04-26T11:51:02.356Z,33.45
2023-04-26T11:52:02.346Z,33.42
2023-04-26T11:53:02.322Z,33.42
2023-04-26T11:54:02.342Z,33.46
2023-04-26T11:55:02.332Z,33.38
2023-04-26T11:56:02.330Z,33.30
2023-04-26T11:57:02.327Z,33.26
2023-04-26T11:58:02.360Z,33.29
2023-04-26T11:59:02.388Z,33.35
2023-04-26T12:00:02.385Z,33.25
2023-04-26T12:01:02.386Z,33.30
2023-04-26T12:02:02.466Z,33.29
2023-04-26T12:03:02.584Z,33.29
2023-04-26T12:04:02.717Z,33.27
2023-04-26T12:05:02.648Z,33.22
2023-04-26T12:06:02.560Z,33.25
2023-04-26T12:07:02.564Z,33.26
2023-04-26T12:08:02.611Z,33.24
2023-04-26T12:09:02.622Z,33.24
2023-04-26T12:10:02.681Z,33.23
2023-04-26T12:11:02.744Z,33.13
2023-04-26T12:12:03.089Z,33.12
2023-04-26T12:13:02.753Z,33.09
2023-04-26T12:14:02.797Z,33.05
2023-04-26T12:15:02.789Z,33.08
2023-04-26T12:16:07.272Z,33.12
2023-04-26T12:17:04.161Z,33.12
2023-04-26T12:18:02.860Z,33.11
2023-04-26T12:19:02.820Z,33.07
2023-04-26T12:20:02.816Z,33.15
2023-04-26T12:21:02.779Z,33.07
2023-04-26T12:22:02.760Z,33.02
2023-04-26T12:23:02.794Z,33.06
2023-04-26T12:24:02.794Z,33.04
2023-04-26T12:25:02.762Z,33.04
2023-04-26T12:26:02.767Z,33.07
2023-04-26T12:27:02.889Z,32.98
2023-04-26T12:28:02.734Z,33.00
2023-04-26T12:29:02.714Z,32.95
2023-04-26T12:30:02.737Z,32.95
2023-04-26T12:31:02.722Z,32.97
2023-04-26T12:32:03.595Z,32.95
2023-04-26T12:33:15.569Z,32.98
2023-04-26T12:34:03.733Z,32.95
2023-04-26T12:35:02.727Z,32.99
2023-04-26T12:36:02.728Z,32.99
2023-04-26T12:37:03.068Z,32.95
2023-04-26T12:38:02.743Z,32.91
2023-04-26T12:39:02.750Z,32.83
2023-04-26T12:40:02.774Z,32.90
2023-04-26T12:41:02.693Z,32.90
2023-04-26T12:42:02.691Z,32.88
2023-04-26T12:43:02.691Z,32.90
2023-04-26T12:44:02.707Z,32.79
2023-04-26T12:45:02.685Z,32.79
2023-04-26T12:46:02.690Z,32.83
2023-04-26T12:47:02.692Z,32.85
2023-04-26T12:48:02.994Z,32.80
2023-04-26T12:49:02.824Z,32.76
2023-04-26T12:50:02.853Z,32.84
2023-04-26T12:51:02.890Z,32.88
2023-04-26T12:52:02.957Z,32.84
2023-04-26T12:53:02.977Z,32.85
2023-04-26T12:54:03.065Z,32.74